Time;durP1;ratioP1;P1;durP2;ratioP2;P2;SDS_P1;SDS_P2;PMS_P1;PMS_P2;Temp;Humidity;BMP_temperature;BMP_pressure;BME280_temperature;BME280_humidity;BME280_pressure;Samples;Min_cycle;Max_cycle;Signal;HPM_P1;HPM_P2
2022/12/28 00:02:26;;;;;;;;;;;;;;;;;;2211969;66;1936;-78
2022/12/28 00:05:03;;;;;;;;;;;;;;;;;;2208887;67;1279;-78
2022/12/28 00:07:38;;;;;;;;;;;;;;;;;;2213709;59;2140;-77
2022/12/28 00:10:11;;;;;;;;;;;;;;;;;;2214024;58;1620;-78
2022/12/28 00:12:48;;;;;;;;;;;;;;;;;;2211654;67;1202;-78
2022/12/28 00:15:21;;;;;;;;;;;;;;;;;;2212287;59;1084;-78
2022/12/28 00:17:55;;;;;;;;;;;;;;;;;;2212224;66;1228;-77
2022/12/28 00:20:31;;;;;;;;;;;;;;;;;;2212243;59;1524;-78
2022/12/28 00:23:06;;;;;;;;;;;;;;;;;;2212231;67;1144;-78
2022/12/28 00:25:46;;;;;;;;;;;;;;;;;;2211817;59;1126;-78
2022/12/28 00:28:22;;;;;;;;;;;;;;;;;;2212718;59;1060;-77
2022/12/28 00:30:58;;;;;;;;;;;;;;;;;;2211407;59;1278;-78
2022/12/28 00:33:33;;;;;;;;;;;;;;;;;;2209188;59;1303;-78
2022/12/28 00:36:07;;;;;;;;;;;;;;;;;;2213976;66;1271;-78
2022/12/28 00:38:41;;;;;;;;;;;;;;;;;;2213413;59;2357;-77
2022/12/28 00:41:15;;;;;;;;;;;;;;;;;;2214345;59;1978;-78
2022/12/28 00:43:52;;;;;;;;;;;;;;;;;;2210294;59;1604;-78
2022/12/28 00:46:25;;;;;;;;;;;;;;;;;;2213835;59;2535;-78
2022/12/28 00:48:59;;;;;;;;;;;;;;;;;;2213167;59;1605;-78
2022/12/28 00:51:36;;;;;;;;;;;;;;;;;;2204331;67;1236;-77
2022/12/28 00:54:09;;;;;;;;;;;;;;;;;;2207224;59;1342;-78
2022/12/28 00:56:45;;;;;;;;;;;;;;;;;;2211489;67;1115;-78
2022/12/28 00:59:24;;;;;;;;;;;;;;;;;;2211193;67;942;-78
2022/12/28 01:01:57;;;;;;;;;;;;;;;;;;2211300;59;2347;-77
2022/12/28 01:04:30;;;;;;;;;;;;;;;;;;2208988;67;1101;-78
2022/12/28 01:07:04;;;;;;;;;;;;;;;;;;2211959;67;1160;-77
2022/12/28 01:09:37;;;;;;;;;;;;;;;;;;2207953;59;1908;-78
2022/12/28 01:12:10;;;;;;;;;;;;;;;;;;2211731;67;1115;-78
2022/12/28 01:14:47;;;;;;;;;;;;;;;;;;2208682;59;2624;-78
2022/12/28 01:17:21;;;;;;;;;;;;;;;;;;2211686;59;1267;-78
2022/12/28 01:19:54;;;;;;;;;;;;;;;;;;2212002;59;1932;-77
2022/12/28 01:22:28;;;;;;;;;;;;;;;;;;2212265;59;2107;-78
2022/12/28 01:25:01;;;;;;;;;;;;;;;;;;2211539;59;1269;-77
2022/12/28 01:27:35;;;;;;;;;;;;;;;;;;2211775;59;1053;-77
2022/12/28 01:30:16;;;;;;;;;;;;;;;;;;2211786;59;1375;-78
2022/12/28 01:32:52;;;;;;;;;;;;;;;;;;2207071;59;1232;-78
2022/12/28 01:35:26;;;;;;;;;;;;;;;;;;2210793;67;1033;-78
2022/12/28 01:37:59;;;;;;;;;;;;;;;;;;2211808;59;1466;-77
2022/12/28 01:40:34;;;;;;;;;;;;;;;;;;2213377;58;1974;-78
2022/12/28 01:43:11;;;;;;;;;;;;;;;;;;2208208;67;1937;-78
2022/12/28 01:45:54;;;;;;;;;;;;;;;;;;2212014;59;1552;-78
2022/12/28 01:48:28;;;;;;;;;;;;;;;;;;2212774;59;1433;-77
2022/12/28 01:51:03;;;;;;;;;;;;;;;;;;2211963;67;1296;-78
2022/12/28 01:53:36;;;;;;;;;;;;;;;;;;2212226;67;1201;-78
2022/12/28 01:56:10;;;;;;;;;;;;;;;;;;2211156;66;1104;-78
2022/12/28 01:58:43;;;;;;;;;;;;;;;;;;2212291;59;1147;-78
2022/12/28 02:01:19;;;;;;;;;;;;;;;;;;2211802;66;1978;-78
2022/12/28 02:03:53;;;;;;;;;;;;;;;;;;2211837;59;2431;-77
2022/12/28 02:06:26;;;;;;;;;;;;;;;;;;2212958;59;2573;-78
2022/12/28 02:09:02;;;;;;;;;;;;;;;;;;2212502;59;1644;-77
2022/12/28 02:11:37;;;;;;;;;;;;;;;;;;2211209;59;2134;-77
2022/12/28 02:14:12;;;;;;;;;;;;;;;;;;2207682;59;1575;-78
2022/12/28 02:16:48;;;;;;;;;;;;;;;;;;2211098;59;1298;-78
2022/12/28 02:19:27;;;;;;;;;;;;;;;;;;2210723;59;1457;-78
2022/12/28 02:22:12;;;;;;;;;;;;;;;;;;2210797;59;2072;-78
2022/12/28 02:25:02;;;;;;;;;;;;;;;;;;2210358;59;1227;-77
2022/12/28 02:27:41;;;;;;;;;;;;;;;;;;2213463;59;1459;-78
2022/12/28 02:30:18;;;;;;;;;;;;;;;;;;2211201;59;1496;-78
2022/12/28 02:33:04;;;;;;;;;;;;;;;;;;2211037;67;1203;-78
2022/12/28 02:35:45;;;;;;;;;;;;;;;;;;2211950;66;1063;-78
2022/12/28 02:38:28;;;;;;;;;;;;;;;;;;2212299;59;1578;-78
2022/12/28 02:41:08;;;;;;;;;;;;;;;;;;2210805;59;1376;-78
2022/12/28 02:43:45;;;;;;;;;;;;;;;;;;2211679;66;1927;-77
2022/12/28 02:52:12;;;;;;;;;;;;;;;;;;2211680;66;1924;-76
2022/12/28 10:15:42;;;;;;;;;;;;;;;;;;2136291;59;4732833;-75
2022/12/28 10:18:24;;;;;;;;;;;;;;;;;;2217285;59;64722;-74
2022/12/28 10:21:58;;;;;;;;;;;;;;;;;;945341;59;37078208;-74
2022/12/28 10:35:26;;;;;;;;;;;;;;;;;;2211270;59;12875;-71
2022/12/28 10:38:03;;;;;;;;;;;;;;;;;;2212926;59;33927;-71
2022/12/28 10:40:38;;;;;;;;;;;;;;;;;;2214068;59;12255;-71
2022/12/28 10:43:20;;;;;;;;;;;;;;;;;;2213538;59;14161;-71
2022/12/28 10:45:53;;;;;;;;;;;;;;;;;;2213180;59;14743;-71
2022/12/28 10:48:29;;;;;;;;;;;;;;;;;;2214730;59;12448;-71
2022/12/28 10:51:12;;;;;;;;;;;;;;;;;;2212977;59;13505;-71
2022/12/28 10:53:47;;;;;;;;;;;;;;;;;;2214236;59;12497;-71
2022/12/28 10:56:22;;;;;;;;;;;;;;;;;;2212791;59;13337;-71
2022/12/28 10:58:57;;;;;;;;;;;;;;;;;;2213514;59;12365;-71
2022/12/28 11:01:31;;;;;;;;;;;;;;;;;;2212937;59;11601;-72
2022/12/28 11:04:06;;;;;;;;;;;;;;;;;;2214314;58;12694;-71
2022/12/28 11:06:53;;;;;;;;;;;;;;;;;;2212309;59;14470;-71
2022/12/28 11:09:27;;;;;;;;;;;;;;;;;;2212755;59;11954;-71
2022/12/28 11:12:20;;;;;;;;;;;;;;;;;;2212068;59;12380;-71
2022/12/28 11:14:55;;;;;;;;;;;;;;;;;;2213116;59;14669;-72
2022/12/28 11:17:30;;;;;;;;;;;;;;;;;;2214404;59;24857;-71
2022/12/28 11:20:08;;;;;;;;;;;;;;;;;;2213230;64;12550;-72
2022/12/28 11:22:44;;;;;;;;;;;;;;;;;;2214156;59;11574;-71
2022/12/28 11:25:18;;;;;;;;;;;;;;;;;;2212663;59;11649;-72
2022/12/28 11:27:51;;;;;;;;;;;;;;;;;;2212681;59;17803;-71
2022/12/28 11:30:25;;;;;;;;;;;;;;;;;;2213459;63;18800;-71
2022/12/28 11:32:59;;;;;;;;;;;;;;;;;;2213827;59;12421;-71
2022/12/28 11:35:33;;;;;;;;;;;;;;;;;;2213902;59;11776;-71
2022/12/28 11:38:13;;;;;;;;;;;;;;;;;;2213708;59;12899;-71
2022/12/28 11:40:51;;;;;;;;;;;;;;;;;;2213127;59;12972;-71
2022/12/28 11:43:41;;;;;;;;;;;;;;;;;;2213511;64;13493;-71
2022/12/28 11:46:29;;;;;;;;;;;;;;;;;;2212990;59;17988;-71
2022/12/28 11:49:03;;;;;;;;;;;;;;;;;;2214220;63;12012;-71
2022/12/28 11:51:37;;;;;;;;;;;;;;;;;;2214310;66;13036;-71
2022/12/28 11:54:39;;;;;;;;;;;;;;;;;;2214197;59;17467;-71
2022/12/28 11:57:12;;;;;;;;;;;;;;;;;;2214078;64;12981;-71
2022/12/28 11:59:45;;;;;;;;;;;;;;;;;;2213442;59;18650;-71
2022/12/28 12:02:33;;;;;;;;;;;;;;;;;;2213139;59;17655;-71
2022/12/28 12:05:21;;;;;;;;;;;;;;;;;;2210762;59;15732;-71
2022/12/28 12:07:54;;;;;;;;;;;;;;;;;;2213112;58;20471;-71
2022/12/28 12:10:37;;;;;;;;;;;;;;;;;;2214917;58;13575;-71
2022/12/28 12:13:25;;;;;;;;;;;;;;;;;;2211667;59;12593;-71
2022/12/28 12:16:05;;;;;;;;;;;;;;;;;;2213559;58;13927;-71
2022/12/28 12:18:44;;;;;;;;;;;;;;;;;;2214819;58;12952;-71
2022/12/28 12:21:25;;;;;;;;;;;;;;;;;;2211303;59;16288;-71
2022/12/28 12:24:05;;;;;;;;;;;;;;;;;;2210343;64;20708;-71
2022/12/28 12:26:41;;;;;;;;;;;;;;;;;;2214150;64;12285;-71
2022/12/28 12:29:17;;;;;;;;;;;;;;;;;;2214488;59;12196;-71
2022/12/28 12:31:57;;;;;;;;;;;;;;;;;;2213967;59;13127;-71
2022/12/28 12:34:36;;;;;;;;;;;;;;;;;;2214070;59;12408;-71
2022/12/28 12:37:24;;;;;;;;;;;;;;;;;;2213923;64;14159;-71
2022/12/28 12:40:05;;;;;;;;;;;;;;;;;;2214203;59;26425;-71
2022/12/28 12:42:43;;;;;;;;;;;;;;;;;;2213606;66;12495;-71
2022/12/28 12:45:21;;;;;;;;;;;;;;;;;;2213700;58;12652;-71
2022/12/28 12:48:04;;;;;;;;;;;;;;;;;;2212280;58;24941;-71
2022/12/28 12:51:03;;;;;;;;;;;;;;;;;;2214967;64;11915;-71
2022/12/28 12:53:49;;;;;;;;;;;;;;;;;;2213323;59;15613;-71
2022/12/28 12:56:30;;;;;;;;;;;;;;;;;;2213969;64;14263;-71
2022/12/28 12:59:13;;;;;;;;;;;;;;;;;;2214504;59;12348;-71
2022/12/28 13:01:53;;;;;;;;;;;;;;;;;;2214059;59;11440;-72
2022/12/28 13:04:31;;;;;;;;;;;;;;;;;;2213062;59;13756;-71
2022/12/28 13:07:05;;;;;;;;;;;;;;;;;;2212511;59;15214;-71
2022/12/28 13:09:38;;;;;;;;;;;;;;;;;;2214667;58;18304;-71
2022/12/28 13:12:13;;;;;;;;;;;;;;;;;;2213504;63;13457;-71
2022/12/28 13:14:47;;;;;;;;;;;;;;;;;;2213077;59;12395;-71
2022/12/28 13:17:22;;;;;;;;;;;;;;;;;;2213597;64;13283;-71
2022/12/28 13:20:11;;;;;;;;;;;;;;;;;;2210706;59;13071;-71
2022/12/28 13:22:48;;;;;;;;;;;;;;;;;;2214062;58;13551;-71
2022/12/28 13:25:29;;;;;;;;;;;;;;;;;;2214540;59;18109;-71
2022/12/28 13:28:03;;;;;;;;;;;;;;;;;;2214016;64;12957;-71
2022/12/28 13:30:36;;;;;;;;;;;;;;;;;;2214158;66;12940;-71
2022/12/28 13:33:21;;;;;;;;;;;;;;;;;;2213909;59;13104;-71
2022/12/28 13:36:05;;;;;;;;;;;;;;;;;;2213900;59;13168;-71
2022/12/28 13:38:41;;;;;;;;;;;;;;;;;;2214678;59;13886;-71
2022/12/28 13:41:21;;;;;;;;;;;;;;;;;;2213719;58;12199;-71
2022/12/28 13:44:04;;;;;;;;;;;;;;;;;;2210645;59;12685;-71
2022/12/28 13:46:38;;;;;;;;;;;;;;;;;;2213714;59;11697;-72
2022/12/28 13:49:12;;;;;;;;;;;;;;;;;;2212507;59;12620;-71
2022/12/28 13:51:45;;;;;;;;;;;;;;;;;;2211977;59;11409;-72
2022/12/28 13:54:23;;;;;;;;;;;;;;;;;;2212638;59;17750;-72
2022/12/28 13:56:58;;;;;;;;;;;;;;;;;;2213664;59;20183;-71
2022/12/28 13:59:31;;;;;;;;;;;;;;;;;;2213246;58;12372;-71
2022/12/28 14:02:05;;;;;;;;;;;;;;;;;;2213353;59;19263;-71
2022/12/28 14:04:38;;;;;;;;;;;;;;;;;;2212987;59;13119;-71
2022/12/28 14:07:13;;;;;;;;;;;;;;;;;;2210352;59;12687;-71
2022/12/28 14:09:50;;;;;;;;;;;;;;;;;;2212227;59;18655;-71
2022/12/28 14:12:23;;;;;;;;;;;;;;;;;;2213444;59;12071;-71
2022/12/28 14:14:56;;;;;;;;;;;;;;;;;;2212068;59;13224;-71
2022/12/28 14:17:30;;;;;;;;;;;;;;;;;;2214652;59;11835;-71
2022/12/28 14:20:03;;;;;;;;;;;;;;;;;;2213856;59;13218;-71
2022/12/28 14:22:37;;;;;;;;;;;;;;;;;;2214042;58;12146;-71
2022/12/28 14:25:14;;;;;;;;;;;;;;;;;;2212400;58;28702;-71
2022/12/28 14:27:55;;;;;;;;;;;;;;;;;;2213474;59;11904;-72
2022/12/28 14:30:29;;;;;;;;;;;;;;;;;;2212189;59;12741;-71
2022/12/28 14:33:03;;;;;;;;;;;;;;;;;;2213424;59;13354;-71
2022/12/28 14:35:37;;;;;;;;;;;;;;;;;;2214145;58;12160;-71
2022/12/28 14:38:18;;;;;;;;;;;;;;;;;;2213713;58;12664;-72
2022/12/28 14:40:58;;;;;;;;;;;;;;;;;;2213575;58;13180;-71
2022/12/28 14:43:33;;;;;;;;;;;;;;;;;;2213473;64;25845;-72
2022/12/28 14:46:16;;;;;;;;;;;;;;;;;;2213777;58;13267;-71
2022/12/28 14:48:49;;;;;;;;;;;;;;;;;;2211273;59;13371;-71
2022/12/28 14:51:27;;;;;;;;;;;;;;;;;;2213855;66;13745;-71
2022/12/28 14:54:17;;;;;;;;;;;;;;;;;;2213983;59;14569;-71
2022/12/28 14:56:55;;;;;;;;;;;;;;;;;;2212902;66;26650;-72
2022/12/28 14:59:29;;;;;;;;;;;;;;;;;;2212550;59;13367;-71
2022/12/28 15:02:02;;;;;;;;;;;;;;;;;;2208775;59;12547;-71
2022/12/28 15:04:37;;;;;;;;;;;;;;;;;;2212033;59;13294;-72
2022/12/28 15:07:12;;;;;;;;;;;;;;;;;;2212087;58;19203;-71
2022/12/28 15:09:45;;;;;;;;;;;;;;;;;;2212282;58;12157;-71
2022/12/28 15:12:21;;;;;;;;;;;;;;;;;;2213232;59;20507;-71
2022/12/28 15:14:54;;;;;;;;;;;;;;;;;;2211955;59;11922;-71
2022/12/28 15:17:28;;;;;;;;;;;;;;;;;;2212727;59;12220;-71
2022/12/28 15:20:01;;;;;;;;;;;;;;;;;;2212999;59;12096;-71
2022/12/28 15:22:34;;;;;;;;;;;;;;;;;;2212499;58;13401;-71
2022/12/28 15:25:09;;;;;;;;;;;;;;;;;;2212537;59;15545;-71
2022/12/28 15:27:45;;;;;;;;;;;;;;;;;;2212837;59;25893;-71
2022/12/28 15:30:18;;;;;;;;;;;;;;;;;;2212083;59;11878;-72
2022/12/28 15:32:51;;;;;;;;;;;;;;;;;;2208788;59;13602;-71
2022/12/28 15:35:24;;;;;;;;;;;;;;;;;;2211613;59;25737;-71
2022/12/28 15:37:57;;;;;;;;;;;;;;;;;;2213299;59;12855;-71
2022/12/28 15:40:30;;;;;;;;;;;;;;;;;;2213255;59;19445;-71
2022/12/28 15:43:06;;;;;;;;;;;;;;;;;;2212363;59;16599;-71
2022/12/28 15:45:39;;;;;;;;;;;;;;;;;;2213101;59;11924;-71
2022/12/28 15:48:13;;;;;;;;;;;;;;;;;;2213235;59;13871;-71
2022/12/28 15:50:46;;;;;;;;;;;;;;;;;;2213589;59;11930;-71
2022/12/28 15:53:19;;;;;;;;;;;;;;;;;;2213766;59;12029;-71
2022/12/28 15:55:59;;;;;;;;;;;;;;;;;;2213063;63;12314;-72
2022/12/28 15:58:35;;;;;;;;;;;;;;;;;;2213425;59;11930;-71
2022/12/28 16:01:08;;;;;;;;;;;;;;;;;;2212385;66;20543;-71
2022/12/28 16:03:41;;;;;;;;;;;;;;;;;;2212345;59;11461;-71
2022/12/28 16:06:14;;;;;;;;;;;;;;;;;;2213028;59;12902;-71
2022/12/28 16:08:48;;;;;;;;;;;;;;;;;;2213046;59;12057;-72
2022/12/28 16:11:22;;;;;;;;;;;;;;;;;;2209192;59;13146;-71
2022/12/28 16:13:59;;;;;;;;;;;;;;;;;;2213352;59;15441;-71
2022/12/28 16:16:33;;;;;;;;;;;;;;;;;;2211489;59;13762;-71
2022/12/28 16:19:07;;;;;;;;;;;;;;;;;;2213244;59;13180;-71
2022/12/28 16:21:40;;;;;;;;;;;;;;;;;;2213517;59;11700;-71
2022/12/28 16:24:14;;;;;;;;;;;;;;;;;;2213519;59;12636;-71
2022/12/28 16:26:47;;;;;;;;;;;;;;;;;;2214090;66;14393;-71
2022/12/28 16:29:23;;;;;;;;;;;;;;;;;;2213904;67;18959;-71
2022/12/28 16:31:56;;;;;;;;;;;;;;;;;;2213222;59;12657;-71
2022/12/28 16:45:13;;;;;;;;;;;;;;;;;;2269822;53;11136;-72
2022/12/28 16:47:46;;;;;;;;;;;;;;;;;;2216876;58;23405;-71
2022/12/28 16:50:19;;;;;;;;;;;;;;;;;;2218086;66;13681;-71
2022/12/28 16:52:52;;;;;;;;;;;;;;;;;;2218452;58;15181;-71
2022/12/28 16:55:25;;;;;;;;;;;;;;;;;;2216754;58;19366;-71
2022/12/28 16:57:58;;;;;;;;;;;;;;;;;;2219281;59;12896;-71
2022/12/28 17:00:34;;;;;;;;;;;;;;;;;;2216851;58;12697;-71
2022/12/28 17:03:07;;;;;;;;;;;;;;;;;;2218823;66;12063;-71
2022/12/28 17:05:40;;;;;;;;;;;;;;;;;;2217503;58;12368;-71
2022/12/28 17:08:14;;;;;;;;;;;;;;;;;;2217868;58;12570;-71
2022/12/28 17:10:47;;;;;;;;;;;;;;;;;;2217375;58;19556;-71
2022/12/28 17:13:20;;;;;;;;;;;;;;;;;;2218604;63;12493;-71
2022/12/28 17:16:00;;;;;;;;;;;;;;;;;;2217260;58;12180;-71
2022/12/28 17:18:34;;;;;;;;;;;;;;;;;;2216481;58;14367;-71
2022/12/28 17:21:09;;;;;;;;;;;;;;;;;;2218099;58;16963;-71
2022/12/28 17:23:42;;;;;;;;;;;;;;;;;;2218071;58;18669;-71
2022/12/28 17:26:15;;;;;;;;;;;;;;;;;;2217342;58;13575;-71
2022/12/28 17:28:48;;;;;;;;;;;;;;;;;;2217785;58;17428;-71
2022/12/28 17:31:24;;;;;;;;;;;;;;;;;;2218200;58;14083;-71
2022/12/28 17:33:59;;;;;;;;;;;;;;;;;;2218011;58;12531;-71
2022/12/28 17:36:32;;;;;;;;;;;;;;;;;;2215907;58;12640;-71
2022/12/28 17:39:05;;;;;;;;;;;;;;;;;;2217147;58;12356;-71
2022/12/28 17:41:38;;;;;;;;;;;;;;;;;;2216154;58;14016;-71
2022/12/28 17:44:12;;;;;;;;;;;;;;;;;;2217379;58;11955;-71
2022/12/28 17:46:47;;;;;;;;;;;;;;;;;;2216956;58;12760;-71
2022/12/28 17:49:21;;;;;;;;;;;;;;;;;;2217570;66;12351;-71
2022/12/28 17:51:54;;;;;;;;;;;;;;;;;;2219274;58;2095;-71
2022/12/28 17:54:27;;;;;;;;;;;;;;;;;;2219938;66;1265;-71
2022/12/28 17:57:00;;;;;;;;;;;;;;;;;;2218658;58;1981;-71
2022/12/28 17:59:33;;;;;;;;;;;;;;;;;;2219983;58;1144;-71
2022/12/28 18:02:11;;;;;;;;;;;;;;;;;;2220165;58;2262;-71
2022/12/28 18:04:44;;;;;;;;;;;;;;;;;;2218767;66;1998;-71
2022/12/28 18:07:17;;;;;;;;;;;;;;;;;;2220538;58;2161;-71
2022/12/28 18:09:50;;;;;;;;;;;;;;;;;;2219535;58;2005;-71
2022/12/28 18:12:23;;;;;;;;;;;;;;;;;;2220131;58;2198;-71
2022/12/28 18:14:57;;;;;;;;;;;;;;;;;;2219283;66;1231;-71
2022/12/28 18:17:32;;;;;;;;;;;;;;;;;;2219325;58;2256;-71
2022/12/28 18:20:06;;;;;;;;;;;;;;;;;;2219571;58;1369;-71
2022/12/28 18:22:39;;;;;;;;;;;;;;;;;;2218518;58;2955;-71
2022/12/28 18:25:12;;;;;;;;;;;;;;;;;;2218492;58;2190;-71
2022/12/28 18:27:46;;;;;;;;;;;;;;;;;;2219523;58;2343;-71
2022/12/28 18:30:19;;;;;;;;;;;;;;;;;;2219797;58;2025;-72
2022/12/28 18:32:55;;;;;;;;;;;;;;;;;;2218910;58;2521;-71
2022/12/28 18:35:28;;;;;;;;;;;;;;;;;;2219671;58;1958;-71
2022/12/28 18:38:01;;;;;;;;;;;;;;;;;;2219892;58;2217;-71
2022/12/28 18:40:36;;;;;;;;;;;;;;;;;;2219765;58;1961;-71
2022/12/28 18:43:09;;;;;;;;;;;;;;;;;;2219570;66;1098;-71
2022/12/28 18:45:43;;;;;;;;;;;;;;;;;;2219157;58;2191;-71
2022/12/28 18:48:18;;;;;;;;;;;;;;;;;;2220113;59;1114;-71
2022/12/28 18:50:55;;;;;;;;;;;;;;;;;;2219829;58;1945;-71
2022/12/28 18:53:29;;;;;;;;;;;;;;;;;;2219665;66;1207;-71
2022/12/28 18:56:03;;;;;;;;;;;;;;;;;;2219306;58;1857;-71
2022/12/28 18:58:38;;;;;;;;;;;;;;;;;;2218522;66;1142;-71
2022/12/28 19:01:13;;;;;;;;;;;;;;;;;;2219749;58;1920;-71
2022/12/28 19:03:49;;;;;;;;;;;;;;;;;;2219627;59;1289;-71
2022/12/28 19:06:22;;;;;;;;;;;;;;;;;;2219524;58;2222;-71
2022/12/28 19:08:59;;;;;;;;;;;;;;;;;;2218461;58;1922;-71
2022/12/28 19:11:33;;;;;;;;;;;;;;;;;;2219157;58;1905;-71
2022/12/28 19:14:06;;;;;;;;;;;;;;;;;;2219602;66;1184;-71
2022/12/28 19:16:39;;;;;;;;;;;;;;;;;;2218797;58;1936;-71
2022/12/28 19:19:16;;;;;;;;;;;;;;;;;;2220012;66;1142;-71
2022/12/28 19:21:50;;;;;;;;;;;;;;;;;;2218290;58;2145;-71
2022/12/28 19:24:23;;;;;;;;;;;;;;;;;;2220216;66;1230;-71
2022/12/28 19:26:56;;;;;;;;;;;;;;;;;;2218596;58;2016;-71
2022/12/28 19:29:31;;;;;;;;;;;;;;;;;;2219428;58;1865;-71
2022/12/28 19:32:04;;;;;;;;;;;;;;;;;;2219546;58;2020;-71
2022/12/28 19:34:40;;;;;;;;;;;;;;;;;;2219142;66;1194;-71
2022/12/28 19:37:13;;;;;;;;;;;;;;;;;;2219137;58;1863;-71
2022/12/28 19:39:46;;;;;;;;;;;;;;;;;;2219103;58;2456;-71
2022/12/28 19:42:19;;;;;;;;;;;;;;;;;;2219388;58;1957;-71
2022/12/28 19:44:52;;;;;;;;;;;;;;;;;;2218552;58;1928;-71
2022/12/28 19:47:25;;;;;;;;;;;;;;;;;;2218749;58;2116;-71
2022/12/28 19:50:01;;;;;;;;;;;;;;;;;;2219215;59;1120;-71
2022/12/28 19:52:35;;;;;;;;;;;;;;;;;;2218836;58;1921;-72
2022/12/28 19:55:08;;;;;;;;;;;;;;;;;;2220157;58;1346;-71
2022/12/28 19:57:41;;;;;;;;;;;;;;;;;;2219218;58;2021;-71
2022/12/28 20:00:15;;;;;;;;;;;;;;;;;;2219727;58;1403;-71
2022/12/28 20:02:48;;;;;;;;;;;;;;;;;;2219908;58;1976;-71
2022/12/28 20:05:24;;;;;;;;;;;;;;;;;;2220306;66;1992;-71
2022/12/28 20:07:57;;;;;;;;;;;;;;;;;;2219333;58;2544;-71
2022/12/28 20:10:31;;;;;;;;;;;;;;;;;;2218866;58;2193;-71
2022/12/28 20:13:04;;;;;;;;;;;;;;;;;;2220258;58;1985;-71
2022/12/28 20:15:37;;;;;;;;;;;;;;;;;;2220498;66;1288;-71
2022/12/28 20:18:10;;;;;;;;;;;;;;;;;;2219847;58;1985;-71
2022/12/28 20:20:46;;;;;;;;;;;;;;;;;;2219193;58;2009;-71
2022/12/28 20:23:19;;;;;;;;;;;;;;;;;;2220381;58;2217;-71
2022/12/28 20:25:52;;;;;;;;;;;;;;;;;;2219724;58;1929;-71
2022/12/28 20:28:26;;;;;;;;;;;;;;;;;;2220606;58;1858;-71
2022/12/28 20:31:01;;;;;;;;;;;;;;;;;;2220438;66;1217;-71
2022/12/28 20:33:34;;;;;;;;;;;;;;;;;;2220389;58;1901;-71
2022/12/28 20:36:12;;;;;;;;;;;;;;;;;;2220428;66;1107;-71
2022/12/28 20:38:45;;;;;;;;;;;;;;;;;;2219781;58;2005;-71
2022/12/28 20:44:06;;;;;;;;;;;;;;;;;;2219553;58;1961;-71
2022/12/28 20:46:39;;;;;;;;;;;;;;;;;;2219011;58;2221;-71
2022/12/28 20:49:12;;;;;;;;;;;;;;;;;;2219653;58;2406;-71
2022/12/28 20:51:48;;;;;;;;;;;;;;;;;;2219245;58;1865;-71
2022/12/28 20:54:22;;;;;;;;;;;;;;;;;;2219730;58;2299;-71
2022/12/28 20:56:55;;;;;;;;;;;;;;;;;;2219672;58;1956;-71
2022/12/28 20:59:28;;;;;;;;;;;;;;;;;;2219357;58;1145;-71
2022/12/28 21:02:01;;;;;;;;;;;;;;;;;;2219418;58;1916;-71
2022/12/28 21:04:34;;;;;;;;;;;;;;;;;;2219276;58;1340;-71
2022/12/28 21:07:10;;;;;;;;;;;;;;;;;;2220031;58;2138;-71
2022/12/28 21:09:44;;;;;;;;;;;;;;;;;;2219737;58;1918;-71
2022/12/28 21:12:17;;;;;;;;;;;;;;;;;;2216408;58;1902;-71
2022/12/28 21:14:50;;;;;;;;;;;;;;;;;;2219271;58;1258;-71
2022/12/28 21:17:23;;;;;;;;;;;;;;;;;;2220378;58;1971;-71
2022/12/28 21:19:56;;;;;;;;;;;;;;;;;;2219937;66;1068;-71
2022/12/28 21:22:32;;;;;;;;;;;;;;;;;;2219464;58;2041;-71
2022/12/28 21:25:06;;;;;;;;;;;;;;;;;;2219582;66;1374;-71
2022/12/28 21:27:39;;;;;;;;;;;;;;;;;;2219330;58;2016;-71
2022/12/28 21:30:12;;;;;;;;;;;;;;;;;;2220116;66;1227;-71
2022/12/28 21:32:49;;;;;;;;;;;;;;;;;;2219472;58;1913;-71
2022/12/28 21:35:23;;;;;;;;;;;;;;;;;;2219661;66;1515;-71
2022/12/28 21:37:58;;;;;;;;;;;;;;;;;;2219081;58;2207;-71
2022/12/28 21:40:32;;;;;;;;;;;;;;;;;;2220459;58;1178;-71
2022/12/28 21:43:05;;;;;;;;;;;;;;;;;;2219732;58;2084;-71
2022/12/28 21:45:38;;;;;;;;;;;;;;;;;;2220327;58;2138;-71
2022/12/28 21:48:11;;;;;;;;;;;;;;;;;;2219983;58;2032;-71
2022/12/28 21:50:44;;;;;;;;;;;;;;;;;;2219466;66;1025;-71
2022/12/28 21:53:20;;;;;;;;;;;;;;;;;;2219903;58;2074;-71
2022/12/28 21:55:53;;;;;;;;;;;;;;;;;;2218714;58;1206;-71
2022/12/28 21:58:26;;;;;;;;;;;;;;;;;;2219690;58;1901;-71
2022/12/28 22:06:37;;;;;;;;;;;;;;;;;;2219371;58;2032;-71
2022/12/28 22:15:49;;;;;;;;;;;;;;;;;;2219136;58;1312;-71
2022/12/28 22:17:44;;;;;;;;;;;;;;;;;;2219138;58;2033;-71
2022/12/28 22:20:17;;;;;;;;;;;;;;;;;;2219857;66;1253;-71
2022/12/28 22:22:51;;;;;;;;;;;;;;;;;;2219665;58;1971;-71
2022/12/28 22:25:27;;;;;;;;;;;;;;;;;;2219490;66;1265;-71
2022/12/28 22:28:00;;;;;;;;;;;;;;;;;;2219674;58;1996;-71
2022/12/28 22:30:35;;;;;;;;;;;;;;;;;;2220171;66;1208;-71
2022/12/28 22:33:08;;;;;;;;;;;;;;;;;;2218055;58;2074;-71
2022/12/28 22:35:41;;;;;;;;;;;;;;;;;;2218133;66;1321;-71
2022/12/28 22:38:14;;;;;;;;;;;;;;;;;;2219324;58;2178;-71
2022/12/28 22:40:57;;;;;;;;;;;;;;;;;;2220485;66;1313;-71
2022/12/28 22:43:30;;;;;;;;;;;;;;;;;;2220936;58;1957;-68
